Time;durP1;ratioP1;P1;durP2;ratioP2;P2;SDS_P1;SDS_P2;PMS_P1;PMS_P2;Temp;Humidity;BMP_temperature;BMP_pressure;BME280_temperature;BME280_humidity;BME280_pressure;Samples;Min_cycle;Max_cycle;Signal;HPM_P1;HPM_P2
2024/02/25 00:00:24;;;;;;;2.03;1.75;;;6.00;58.70;;;1.10;100.00;94572.69;4991914;28;20022;-52
2024/02/25 00:02:50;;;;;;;4.63;1.90;;;6.00;58.90;;;1.09;100.00;94584.19;4990331;28;21237;-56
2024/02/25 00:05:16;;;;;;;3.05;2.00;;;5.90;58.90;;;1.04;100.00;94582.28;4990998;28;20022;-54
2024/02/25 00:07:42;;;;;;;2.85;2.00;;;5.90;59.00;;;0.97;100.00;94580.78;4990405;28;20041;-52
2024/02/25 00:10:09;;;;;;;3.15;2.28;;;5.80;59.00;;;0.88;100.00;94581.16;4991557;28;20084;-52
2024/02/25 00:12:35;;;;;;;2.15;1.85;;;5.80;59.10;;;0.82;100.00;94579.44;4991605;28;20032;-53
2024/02/25 00:15:01;;;;;;;2.40;1.80;;;5.80;59.20;;;0.79;100.00;94574.66;4989967;28;20488;-56
2024/02/25 00:17:26;;;;;;;2.08;1.80;;;5.70;59.20;;;0.71;100.00;94574.19;4991163;28;20045;-53
2024/02/25 00:19:52;;;;;;;3.67;2.00;;;5.70;59.30;;;0.62;100.00;94573.72;4990111;28;20032;-54
2024/02/25 00:22:18;;;;;;;2.80;2.00;;;5.60;59.30;;;0.56;100.00;94578.03;4990903;28;20412;-51
2024/02/25 00:24:44;;;;;;;2.28;1.80;;;5.50;59.40;;;0.59;100.00;94579.41;4990805;28;20028;-51
2024/02/25 00:27:10;;;;;;;2.35;1.95;;;5.50;59.40;;;0.52;100.00;94587.38;4988949;28;20040;-53
2024/02/25 00:29:36;;;;;;;3.10;2.10;;;5.50;59.50;;;0.43;100.00;94581.66;4990921;28;20018;-51
2024/02/25 00:32:02;;;;;;;3.38;1.98;;;5.40;59.50;;;0.35;100.00;94583.84;4989771;28;20030;-54
2024/02/25 00:34:28;;;;;;;3.08;1.95;;;5.30;59.50;;;0.25;100.00;94586.19;4990582;28;20021;-52
2024/02/25 00:36:54;;;;;;;2.80;1.65;;;5.30;59.60;;;0.21;100.00;94580.59;4990444;28;20036;-51
2024/02/25 00:39:21;;;;;;;3.17;2.20;;;5.20;59.60;;;0.17;100.00;94582.06;4990228;28;20025;-51
2024/02/25 00:41:51;;;;;;;3.20;1.88;;;5.20;59.60;;;0.11;100.00;94590.81;4990795;28;20080;-53
2024/02/25 00:44:17;;;;;;;4.20;2.20;;;5.10;59.70;;;0.03;100.00;94584.06;4989076;28;20033;-51
2024/02/25 00:46:43;;;;;;;2.35;1.90;;;5.00;59.70;;;-0.04;100.00;94575.50;4989846;28;20033;-51
2024/02/25 00:49:09;;;;;;;3.80;2.58;;;5.00;59.80;;;-0.11;100.00;94580.03;4988518;28;20037;-54
2024/02/25 00:51:34;;;;;;;3.65;1.90;;;4.90;59.90;;;-0.16;100.00;94579.91;4993423;23;20712;-48
2024/02/25 00:54:00;;;;;;;3.47;2.10;;;4.90;60.00;;;-0.21;100.00;94577.16;4950974;28;20081;-50
2024/02/25 00:56:26;;;;;;;2.53;2.17;;;4.80;60.00;;;-0.22;100.00;94573.72;4948683;28;20061;-50
2024/02/25 00:58:52;;;;;;;3.95;2.10;;;4.80;60.20;;;-0.25;100.00;94579.44;4935039;28;20031;-48
2024/02/25 01:01:18;;;;;;;3.20;2.15;;;4.80;60.40;;;-0.25;100.00;94577.59;4953349;28;20481;-49
2024/02/25 01:03:45;;;;;;;3.83;2.08;;;4.70;60.40;;;-0.31;100.00;94577.69;4965877;28;20025;-49
2024/02/25 01:06:11;;;;;;;3.13;2.17;;;4.70;60.60;;;-0.37;100.00;94574.13;4960120;28;20054;-48
2024/02/25 01:08:41;;;;;;;2.72;1.90;;;4.70;60.60;;;-0.31;100.00;94575.09;4962895;28;20061;-49
2024/02/25 01:11:11;;;;;;;3.05;2.05;;;4.70;60.70;;;-0.35;100.00;94573.91;4968863;28;20045;-48
2024/02/25 01:13:37;;;;;;;3.38;2.08;;;4.60;60.70;;;-0.32;100.00;94565.63;4967170;28;20022;-50
2024/02/25 01:16:04;;;;;;;7.53;2.75;;;4.60;60.80;;;-0.36;100.00;94559.22;4970246;28;20053;-52
2024/02/25 01:18:34;;;;;;;2.72;2.22;;;4.60;60.80;;;-0.46;100.00;94557.16;4963800;28;20477;-54
2024/02/25 01:21:00;;;;;;;4.00;2.10;;;4.50;60.90;;;-0.51;100.00;94552.56;4965369;28;20030;-54
2024/02/25 01:23:26;;;;;;;3.92;2.50;;;4.50;60.90;;;-0.54;100.00;94550.38;4970655;28;20400;-51
2024/02/25 01:25:52;;;;;;;4.53;2.80;;;4.50;61.00;;;-0.54;100.00;94547.75;4963088;28;20022;-49
2024/02/25 01:28:19;;;;;;;3.00;2.05;;;4.50;61.20;;;-0.59;100.00;94554.69;4975842;28;20084;-49
2024/02/25 01:30:47;;;;;;;2.83;2.30;;;4.40;61.30;;;-0.57;100.00;94547.41;4975489;28;20023;-48
2024/02/25 01:33:14;;;;;;;4.47;2.33;;;4.40;61.40;;;-0.54;100.00;94557.44;4976427;28;20460;-51
2024/02/25 01:35:41;;;;;;;4.82;2.30;;;4.40;61.60;;;-0.53;100.00;94549.38;4983066;28;20473;-57
2024/02/25 01:38:07;;;;;;;3.38;2.30;;;4.40;61.60;;;-0.53;100.00;94554.63;4970500;28;20462;-49
2024/02/25 01:40:34;;;;;;;3.95;2.60;;;4.40;61.70;;;-0.60;100.00;94548.66;4966233;28;20025;-51
2024/02/25 01:43:26;;;;;;;3.08;2.10;;;4.40;61.70;;;-0.54;100.00;94549.59;4969825;28;20022;-55
2024/02/25 01:45:52;;;;;;;3.47;2.10;;;4.40;61.90;;;-0.56;100.00;94546.41;4971544;28;20042;-53
2024/02/25 01:48:20;;;;;;;4.22;2.42;;;4.40;61.70;;;-0.50;100.00;94541.09;4962731;28;20026;-51
2024/02/25 01:50:47;;;;;;;3.63;2.00;;;4.30;62.00;;;-0.42;100.00;94547.03;4970199;28;20489;-51
2024/02/25 01:53:16;;;;;;;2.67;2.17;;;4.40;62.10;;;-0.34;100.00;94546.75;4972440;28;20037;-49
2024/02/25 01:55:45;;;;;;;2.85;2.10;;;4.40;62.30;;;-0.37;100.00;94544.56;4973291;28;20014;-53
2024/02/25 01:58:13;;;;;;;3.40;2.20;;;4.40;62.20;;;-0.46;100.00;94549.28;4970220;28;20484;-50
2024/02/25 02:00:40;;;;;;;3.80;2.25;;;4.40;62.20;;;-0.44;100.00;94539.38;4968388;28;20028;-48
2024/02/25 02:03:06;;;;;;;4.72;2.17;;;4.50;62.20;;;-0.30;100.00;94543.44;4967650;28;20049;-53
2024/02/25 02:05:33;;;;;;;2.08;1.80;;;4.50;62.40;;;-0.28;100.00;94545.84;4964059;28;20018;-50
2024/02/25 02:07:59;;;;;;;3.40;2.38;;;4.50;62.40;;;-0.28;100.00;94538.78;4954295;28;20027;-53
2024/02/25 02:10:25;;;;;;;2.53;1.77;;;4.50;62.40;;;-0.26;100.00;94541.97;4963436;28;20389;-50
2024/02/25 02:12:50;;;;;;;6.38;2.50;;;4.50;62.50;;;-0.27;100.00;94542.22;4978837;28;20022;-48
2024/02/25 02:15:17;;;;;;;3.28;1.65;;;4.50;62.50;;;-0.26;100.00;94538.56;4970727;28;20109;-51
2024/02/25 02:17:44;;;;;;;5.60;2.10;;;4.50;62.50;;;-0.33;100.00;94536.03;4966259;28;20037;-51
2024/02/25 02:20:18;;;;;;;4.32;1.73;;;4.60;62.50;;;-0.36;100.00;94528.63;4929274;28;20025;-52
2024/02/25 02:22:45;;;;;;;9.05;2.10;;;4.50;62.40;;;-0.40;100.00;94529.31;4955214;28;20092;-50
2024/02/25 02:25:15;;;;;;;2.58;1.92;;;4.50;62.40;;;-0.42;100.00;94521.66;4956010;28;20030;-53
2024/02/25 02:27:44;;;;;;;3.03;2.20;;;4.50;62.60;;;-0.44;100.00;94526.31;4950256;28;20074;-49
2024/02/25 02:30:12;;;;;;;2.55;1.92;;;4.50;62.50;;;-0.48;100.00;94530.41;4971992;28;20096;-53
2024/02/25 02:32:39;;;;;;;2.75;1.77;;;4.50;62.50;;;-0.45;100.00;94523.94;4965648;28;20499;-50
2024/02/25 02:35:07;;;;;;;2.70;2.22;;;4.50;62.60;;;-0.52;100.00;94516.97;4961674;28;20025;-52
2024/02/25 02:37:34;;;;;;;2.40;2.13;;;4.40;62.60;;;-0.52;100.00;94530.03;4957475;28;20400;-51
2024/02/25 02:39:59;;;;;;;3.25;2.10;;;4.50;62.70;;;-0.55;100.00;94521.84;4972021;28;20018;-53
2024/02/25 02:42:28;;;;;;;2.97;2.30;;;4.40;62.70;;;-0.59;100.00;94521.50;4973659;28;20033;-50
2024/02/25 02:44:54;;;;;;;2.28;1.83;;;4.40;62.80;;;-0.59;100.00;94518.06;4972312;28;20515;-51
2024/02/25 02:47:22;;;;;;;3.17;2.10;;;4.40;62.80;;;-0.58;100.00;94512.59;4966331;28;20062;-53
2024/02/25 02:49:48;;;;;;;4.35;2.08;;;4.40;62.90;;;-0.56;100.00;94509.78;4954487;28;20017;-53
2024/02/25 02:52:16;;;;;;;3.47;1.90;;;4.40;63.00;;;-0.59;100.00;94512.84;4970094;28;20046;-53
2024/02/25 02:54:43;;;;;;;3.75;2.15;;;4.30;63.00;;;-0.65;100.00;94508.50;4972770;28;20030;-49
2024/02/25 02:57:10;;;;;;;7.18;1.42;;;4.40;63.10;;;-0.67;100.00;94511.31;4971744;28;20034;-50
2024/02/25 02:59:36;;;;;;;2.92;1.80;;;4.30;63.90;;;-0.63;100.00;94509.84;4956026;28;20477;-51
2024/02/25 03:02:03;;;;;;;3.13;1.80;;;4.30;63.10;;;-0.61;100.00;94514.88;4973595;28;20022;-49
2024/02/25 03:04:29;;;;;;;2.40;1.65;;;4.30;63.20;;;-0.62;100.00;94505.44;4955483;28;20037;-49
2024/02/25 03:06:56;;;;;;;2.15;1.55;;;4.30;63.20;;;-0.63;100.00;94515.06;4969458;28;20097;-52
2024/02/25 03:09:23;;;;;;;5.25;1.75;;;4.30;63.20;;;-0.65;100.00;94509.28;4954355;28;20539;-50
2024/02/25 03:11:49;;;;;;;4.32;1.80;;;4.30;63.30;;;-0.68;100.00;94508.94;4972898;28;20081;-52
2024/02/25 03:14:17;;;;;;;3.38;1.90;;;4.30;63.30;;;-0.72;100.00;94504.16;4972002;28;20110;-50
2024/02/25 03:16:43;;;;;;;1.55;1.27;;;4.30;63.30;;;-0.76;100.00;94510.03;4972330;28;20026;-53
2024/02/25 03:19:09;;;;;;;3.40;1.98;;;4.20;63.10;;;-0.79;100.00;94507.84;4972336;28;20092;-55
2024/02/25 03:21:43;;;;;;;2.85;1.77;;;4.20;63.20;;;-0.83;100.00;94497.03;4971987;28;20028;-54
2024/02/25 03:24:12;;;;;;;2.25;1.80;;;4.20;63.30;;;-0.87;100.00;94498.50;4970161;28;20053;-51
2024/02/25 03:26:38;;;;;;;2.13;1.73;;;4.20;63.20;;;-0.88;100.00;94498.69;4970037;28;20030;-52
2024/02/25 03:29:05;;;;;;;2.75;1.50;;;4.10;63.20;;;-0.92;100.00;94495.72;4939011;28;20026;-50
2024/02/25 03:31:34;;;;;;;11.73;4.28;;;4.10;63.30;;;-0.88;100.00;94490.84;4967981;28;20026;-50
2024/02/25 03:34:00;;;;;;;11.25;2.75;;;4.10;63.40;;;-0.86;100.00;94500.09;4954399;28;20369;-54
2024/02/25 03:36:26;;;;;;;13.18;3.38;;;4.10;63.50;;;-0.83;100.00;94494.41;4972416;28;20038;-52
2024/02/25 03:38:52;;;;;;;2.97;1.98;;;4.10;63.60;;;-0.82;100.00;94490.78;4971548;28;20029;-54
2024/02/25 03:41:18;;;;;;;4.75;1.65;;;4.10;63.70;;;-0.82;100.00;94498.63;4972519;28;20041;-50
2024/02/25 03:43:43;;;;;;;2.75;1.75;;;4.10;63.70;;;-0.83;100.00;94491.00;4969843;28;20105;-50
2024/02/25 03:46:09;;;;;;;3.47;1.60;;;4.10;63.70;;;-0.80;100.00;94491.34;4971868;28;20260;-50
2024/02/25 03:48:35;;;;;;;2.63;1.85;;;4.10;63.80;;;-0.80;100.00;94488.75;4969377;28;20042;-49
2024/02/25 03:51:01;;;;;;;4.43;1.70;;;4.10;63.80;;;-0.85;100.00;94485.19;4968210;28;20034;-51
2024/02/25 03:53:27;;;;;;;2.10;1.52;;;4.10;63.80;;;-0.91;100.00;94484.25;4972287;28;20050;-48
2024/02/25 03:55:52;;;;;;;2.75;1.58;;;4.10;63.70;;;-0.97;100.00;94478.09;4953610;28;20025;-49
2024/02/25 03:58:18;;;;;;;4.35;1.70;;;4.00;63.70;;;-0.94;100.00;94480.28;4970386;28;20034;-49
2024/02/25 04:00:44;;;;;;;1.92;1.58;;;4.10;63.80;;;-0.94;100.00;94482.06;4971851;28;20030;-51
2024/02/25 04:03:10;;;;;;;2.42;1.50;;;4.10;63.80;;;-0.94;100.00;94485.50;4970601;28;20503;-50
2024/02/25 04:05:35;;;;;;;3.17;1.67;;;4.00;63.80;;;-0.89;100.00;94486.66;4970309;28;20026;-50
2024/02/25 04:08:01;;;;;;;1.83;1.50;;;4.00;63.80;;;-0.89;100.00;94481.44;4970210;28;20101;-49
2024/02/25 04:10:28;;;;;;;1.98;1.40;;;4.00;63.90;;;-0.97;100.00;94480.72;4972100;28;20120;-48
2024/02/25 04:12:54;;;;;;;2.63;1.17;;;4.00;63.90;;;-1.05;100.00;94480.22;4954443;28;20065;-48
2024/02/25 04:15:19;;;;;;;2.50;1.60;;;4.00;63.90;;;-1.03;100.00;94486.03;4966541;28;20049;-48
2024/02/25 04:17:45;;;;;;;2.20;1.40;;;4.00;63.80;;;-1.01;100.00;94490.00;4971303;28;20033;-48
2024/02/25 04:20:11;;;;;;;2.50;1.63;;;4.00;63.90;;;-0.99;100.00;94492.41;4970658;28;20033;-48
2024/02/25 04:22:37;;;;;;;2.35;1.73;;;4.00;63.90;;;-1.01;100.00;94489.19;4971766;28;20397;-48
2024/02/25 04:25:03;;;;;;;2.80;1.40;;;4.00;63.90;;;-1.03;100.00;94502.50;4971247;28;20464;-50
2024/02/25 04:27:29;;;;;;;2.28;1.50;;;3.90;63.80;;;-1.06;100.00;94500.31;4968899;28;20029;-52
2024/02/25 04:29:55;;;;;;;2.63;1.58;;;3.90;63.80;;;-1.07;100.00;94497.91;4971600;28;20022;-48
2024/02/25 04:32:21;;;;;;;2.53;1.52;;;3.90;63.90;;;-1.08;100.00;94494.50;4966231;28;20018;-49
2024/02/25 04:34:47;;;;;;;3.50;1.25;;;3.90;64.00;;;-1.14;100.00;94492.75;4971042;28;20026;-49
2024/02/25 04:37:13;;;;;;;2.05;1.40;;;3.90;64.00;;;-1.13;100.00;94496.16;4971330;28;20037;-51
2024/02/25 04:39:41;;;;;;;3.65;1.40;;;3.90;64.00;;;-1.20;100.00;94489.19;4970717;28;20018;-48
2024/02/25 04:42:07;;;;;;;2.28;1.40;;;3.80;64.00;;;-1.21;100.00;94490.22;4970454;28;20564;-50
2024/02/25 04:44:33;;;;;;;2.47;1.55;;;3.80;64.00;;;-1.23;100.00;94491.44;4952869;28;20476;-53
2024/02/25 04:46:59;;;;;;;2.10;1.75;;;3.70;64.00;;;-1.28;100.00;94488.72;4970793;28;20037;-53
2024/02/25 04:49:25;;;;;;;3.15;1.70;;;3.80;64.10;;;-1.29;100.00;94479.25;4965743;28;20026;-51
2024/02/25 04:51:51;;;;;;;9.85;1.90;;;3.70;64.00;;;-1.29;100.00;94476.66;4970790;28;20042;-50
2024/02/25 04:54:17;;;;;;;5.78;1.85;;;3.70;64.10;;;-1.28;100.00;94478.25;4970868;28;20022;-53
2024/02/25 04:56:43;;;;;;;3.67;1.90;;;3.70;64.30;;;-1.32;100.00;94475.25;4968307;28;20042;-48
2024/02/25 04:59:10;;;;;;;5.63;2.13;;;3.70;64.30;;;-1.29;100.00;94480.06;4971081;28;20053;-52
2024/02/25 05:01:47;;;;;;;3.10;2.08;;;3.70;64.40;;;-1.28;100.00;94483.47;4969847;28;20026;-50
2024/02/25 05:04:13;;;;;;;5.07;2.20;;;3.70;64.60;;;-1.29;100.00;94479.25;4965591;28;20400;-54
2024/02/25 05:06:39;;;;;;;5.00;2.30;;;3.70;64.50;;;-1.32;100.00;94477.88;4969561;28;20036;-50
2024/02/25 05:09:05;;;;;;;3.95;1.92;;;3.70;64.50;;;-1.33;100.00;94484.13;4970077;28;20022;-48
2024/02/25 05:11:34;;;;;;;3.05;2.10;;;3.70;64.60;;;-1.37;100.00;94475.13;4970819;28;20052;-49
2024/02/25 05:14:00;;;;;;;3.97;2.17;;;3.70;64.60;;;-1.38;100.00;94478.72;4969937;28;20054;-54
2024/02/25 05:16:26;;;;;;;2.92;1.90;;;3.60;64.60;;;-1.37;100.00;94480.34;4970483;28;20081;-48
2024/02/25 05:18:52;;;;;;;3.17;2.10;;;3.60;64.60;;;-1.41;100.00;94473.94;4970944;28;20029;-48
2024/02/25 05:21:18;;;;;;;5.03;2.45;;;3.60;64.60;;;-1.40;100.00;94478.19;4969828;28;20477;-47
2024/02/25 05:23:44;;;;;;;5.93;2.40;;;3.60;64.70;;;-1.41;100.00;94481.78;4953485;28;20026;-48
2024/02/25 05:26:10;;;;;;;3.17;2.03;;;3.60;64.80;;;-1.45;100.00;94488.47;4969173;28;20025;-47
2024/02/25 05:28:36;;;;;;;3.50;2.10;;;3.60;64.80;;;-1.42;100.00;94488.03;4972380;28;20022;-51
2024/02/25 05:31:03;;;;;;;9.68;2.60;;;3.50;64.80;;;-1.41;100.00;94492.22;4969940;28;20034;-49
2024/02/25 05:33:29;;;;;;;3.13;1.90;;;3.60;64.80;;;-1.48;100.00;94486.28;4966322;28;20171;-51
2024/02/25 05:35:55;;;;;;;4.43;2.60;;;3.60;64.80;;;-1.50;100.00;94483.09;4970397;28;20548;-49
2024/02/25 05:38:21;;;;;;;13.43;2.83;;;3.60;64.80;;;-1.49;100.00;94488.09;4969501;28;20029;-47
2024/02/25 05:40:47;;;;;;;4.00;2.40;;;3.60;64.90;;;-1.46;100.00;94481.66;4970235;28;20026;-49
2024/02/25 05:43:13;;;;;;;3.83;2.58;;;3.50;64.90;;;-1.48;100.00;94484.47;4969587;28;20033;-54
2024/02/25 05:45:39;;;;;;;7.03;2.80;;;3.50;65.00;;;-1.47;100.00;94483.47;4966544;28;20033;-47
2024/02/25 05:48:07;;;;;;;5.55;2.63;;;3.50;65.10;;;-1.47;100.00;94488.69;4968474;28;20042;-48
2024/02/25 05:50:32;;;;;;;5.68;2.70;;;3.60;65.20;;;-1.48;100.00;94486.28;4969410;28;20627;-48
2024/02/25 05:52:58;;;;;;;4.97;2.80;;;3.50;65.10;;;-1.51;100.00;94482.28;4970375;28;20141;-50
2024/02/25 05:55:24;;;;;;;4.00;2.58;;;3.50;65.10;;;-1.52;100.00;94487.75;4969260;28;20072;-55
2024/02/25 05:57:50;;;;;;;12.60;3.30;;;3.50;65.10;;;-1.53;100.00;94486.94;4971874;28;20477;-52
2024/02/25 06:00:17;;;;;;;4.82;2.83;;;3.50;65.20;;;-1.58;100.00;94497.22;4970592;28;20633;-54
2024/02/25 06:02:46;;;;;;;5.68;2.63;;;3.50;65.10;;;-1.61;100.00;94489.03;4968947;28;20050;-53
2024/02/25 06:05:18;;;;;;;4.75;2.78;;;3.50;65.10;;;-1.64;100.00;94485.03;4968921;28;20018;-49
2024/02/25 06:07:45;;;;;;;10.82;3.00;;;3.50;65.20;;;-1.67;100.00;94493.28;4969111;28;20430;-52
2024/02/25 06:10:12;;;;;;;2.80;2.20;;;3.50;65.10;;;-1.66;100.00;94493.09;4970335;28;20022;-52
2024/02/25 06:12:38;;;;;;;4.63;2.75;;;3.40;65.10;;;-1.70;100.00;94496.34;4970210;28;20029;-53
2024/02/25 06:15:11;;;;;;;4.22;2.65;;;3.40;65.10;;;-1.72;100.00;94490.53;4965553;28;20030;-53
2024/02/25 06:17:38;;;;;;;14.35;3.47;;;3.40;65.10;;;-1.71;100.00;94494.75;4970247;28;20030;-51
2024/02/25 06:20:10;;;;;;;9.98;3.33;;;3.40;65.10;;;-1.71;100.00;94495.53;4969298;28;20022;-51
2024/02/25 06:22:40;;;;;;;5.13;2.93;;;3.30;65.10;;;-1.69;100.00;94490.13;4970098;28;20030;-50
2024/02/25 06:25:08;;;;;;;6.88;3.00;;;3.40;65.20;;;-1.69;100.00;94492.72;4969889;28;20277;-50
2024/02/25 06:27:38;;;;;;;6.57;3.15;;;3.40;65.20;;;-1.69;100.00;94498.75;4969651;28;20456;-54
2024/02/25 06:30:06;;;;;;;4.82;3.22;;;3.40;65.40;;;-1.68;100.00;94499.53;4952784;28;20544;-51
2024/02/25 06:32:33;;;;;;;4.95;3.10;;;3.40;65.40;;;-1.65;100.00;94491.28;4969109;28;20041;-51
2024/02/25 06:34:59;;;;;;;4.78;3.00;;;3.50;65.40;;;-1.61;100.00;94495.03;4969835;28;20057;-52
2024/02/25 06:37:29;;;;;;;3.80;2.78;;;3.50;65.40;;;-1.57;100.00;94495.41;4968820;28;20053;-56
2024/02/25 06:39:56;;;;;;;6.88;3.22;;;3.50;65.50;;;-1.54;100.00;94502.81;4969072;28;20042;-49
2024/02/25 06:42:22;;;;;;;10.40;3.70;;;3.60;65.50;;;-1.48;100.00;94501.94;4969968;28;20029;-55
2024/02/25 06:44:48;;;;;;;7.00;3.50;;;3.60;65.60;;;-1.42;100.00;94514.16;4971406;28;20026;-53
2024/02/25 06:47:14;;;;;;;5.78;3.42;;;3.70;65.60;;;-1.40;100.00;94501.69;4973099;28;20034;-52
2024/02/25 06:49:41;;;;;;;5.03;2.90;;;3.70;65.60;;;-1.37;100.00;94510.91;4952191;28;20022;-50
2024/02/25 06:52:08;;;;;;;4.90;3.10;;;3.80;65.70;;;-1.30;100.00;94512.44;4972895;28;20084;-51
2024/02/25 06:54:34;;;;;;;5.32;2.97;;;3.80;65.60;;;-1.26;100.00;94507.56;4972500;28;20022;-53
2024/02/25 06:57:00;;;;;;;5.03;3.13;;;3.90;65.70;;;-1.17;100.00;94512.28;4976714;28;20519;-54
2024/02/25 06:59:26;;;;;;;5.28;2.88;;;4.00;65.70;;;-1.10;100.00;94522.66;4961042;28;20058;-52
2024/02/25 07:01:52;;;;;;;4.05;2.70;;;4.00;65.70;;;-1.09;100.00;94511.22;4971436;28;20065;-53
2024/02/25 07:04:19;;;;;;;5.75;2.92;;;4.10;65.60;;;-1.02;100.00;94525.00;4970287;28;20416;-52
2024/02/25 07:06:45;;;;;;;5.80;3.00;;;4.20;65.60;;;-0.95;100.00;94517.09;4972069;28;20048;-52
2024/02/25 07:09:11;;;;;;;7.22;3.00;;;4.30;65.50;;;-0.85;100.00;94514.75;4955861;28;20026;-52
2024/02/25 07:11:37;;;;;;;4.82;3.13;;;4.40;65.50;;;-0.77;100.00;94517.06;4972573;28;20026;-55
2024/02/25 07:14:02;;;;;;;5.68;3.22;;;4.50;65.60;;;-0.73;100.00;94509.59;4971484;28;20473;-54
2024/02/25 07:16:28;;;;;;;4.18;2.97;;;4.50;65.50;;;-0.66;100.00;94509.50;4964347;28;20468;-52
2024/02/25 07:18:54;;;;;;;4.50;3.00;;;4.60;65.50;;;-0.54;100.00;94512.97;4969871;28;20045;-54
2024/02/25 07:21:20;;;;;;;7.53;3.30;;;4.70;66.30;;;-0.46;100.00;94507.44;4970320;28;20034;-56
2024/02/25 07:23:46;;;;;;;5.88;3.38;;;4.80;65.60;;;-0.36;100.00;94512.13;4966557;28;20026;-56
2024/02/25 07:26:14;;;;;;;5.13;3.08;;;4.90;65.70;;;-0.26;100.00;94504.53;4948633;28;20065;-54
2024/02/25 07:28:42;;;;;;;5.15;3.30;;;5.00;65.70;;;-0.15;100.00;94498.53;4970758;28;20085;-51
2024/02/25 07:31:16;;;;;;;8.90;3.28;;;5.10;65.80;;;-0.04;100.00;94500.38;4963777;28;20124;-52
2024/02/25 07:33:43;;;;;;;6.07;3.20;;;5.30;65.80;;;0.08;100.00;94503.03;4967808;28;20054;-54
2024/02/25 07:36:14;;;;;;;5.18;3.10;;;5.50;65.80;;;0.21;100.00;94502.81;4962192;28;20413;-51
2024/02/25 07:38:41;;;;;;;6.30;3.63;;;5.60;65.70;;;0.41;100.00;94496.47;4968530;28;20030;-55
2024/02/25 07:41:08;;;;;;;26.02;11.63;;;5.90;65.70;;;0.70;100.00;94484.25;4961126;28;20022;-52
2024/02/25 07:43:36;;;;;;;17.23;6.57;;;6.30;65.70;;;1.08;100.00;94494.22;4966466;28;21832;-55
2024/02/25 07:46:03;;;;;;;11.18;5.45;;;6.70;65.60;;;1.39;100.00;94498.25;4966811;28;20026;-52
2024/02/25 07:48:30;;;;;;;8.80;4.50;;;7.10;65.50;;;1.78;100.00;94492.38;4970209;28;20109;-53
2024/02/25 07:50:56;;;;;;;6.75;3.83;;;7.40;65.50;;;2.15;100.00;94503.25;4964062;28;20027;-53
2024/02/25 07:53:23;;;;;;;6.47;3.97;;;7.90;65.40;;;2.45;100.00;94500.31;4961638;28;20049;-55
2024/02/25 07:55:49;;;;;;;4.72;3.50;;;8.30;65.30;;;2.68;100.00;94501.19;4970112;28;20029;-56
2024/02/25 07:58:15;;;;;;;4.65;3.15;;;8.50;65.10;;;2.80;100.00;94501.88;4970103;28;20030;-55
2024/02/25 08:00:42;;;;;;;3.33;2.72;;;8.60;64.90;;;2.88;100.00;94493.56;4971721;28;20041;-56
2024/02/25 08:03:09;;;;;;;3.25;2.85;;;8.80;64.90;;;2.96;100.00;94492.38;4970828;28;20580;-58
2024/02/25 08:05:34;;;;;;;4.10;2.60;;;8.90;64.60;;;3.02;100.00;94488.75;4971314;28;20481;-58
2024/02/25 08:08:00;;;;;;;2.63;2.15;;;9.10;64.40;;;3.18;100.00;94495.81;4967631;28;20140;-57
2024/02/25 08:10:26;;;;;;;2.45;1.80;;;9.40;64.20;;;3.28;100.00;94489.06;4972318;28;20018;-59
2024/02/25 08:12:54;;;;;;;3.72;1.95;;;9.60;63.80;;;3.39;100.00;94496.06;4971583;28;20092;-59
2024/02/25 08:15:20;;;;;;;1.55;1.45;;;9.80;63.30;;;3.46;100.00;94484.28;4970331;28;20557;-59
2024/02/25 08:17:46;;;;;;;1.65;1.40;;;9.90;62.70;;;3.52;100.00;94484.34;4971782;28;20516;-58
2024/02/25 08:20:12;;;;;;;2.20;1.40;;;10.00;62.20;;;3.57;100.00;94479.13;4970928;28;20105;-59
2024/02/25 08:22:39;;;;;;;2.05;1.42;;;10.10;61.80;;;3.59;100.00;94487.59;4971680;28;20026;-57
2024/02/25 08:25:06;;;;;;;2.25;1.80;;;10.20;61.30;;;3.73;100.00;94486.16;4971249;28;20029;-59
2024/02/25 08:27:32;;;;;;;1.90;1.58;;;10.30;60.90;;;3.87;100.00;94482.06;4970177;28;20029;-59
2024/02/25 08:30:07;;;;;;;2.95;1.50;;;10.40;60.50;;;4.01;99.91;94485.13;4972815;28;20025;-59
2024/02/25 08:32:33;;;;;;;2.00;1.27;;;10.60;59.90;;;4.23;100.00;94476.31;4969268;28;20056;-59
2024/02/25 08:34:59;;;;;;;1.75;1.50;;;10.80;59.70;;;4.42;98.49;94472.28;4955408;28;20049;-60
2024/02/25 08:37:27;;;;;;;1.35;1.25;;;11.00;59.50;;;4.65;96.05;94471.09;4972305;28;20116;-60
2024/02/25 08:39:54;;;;;;;1.40;1.30;;;11.30;59.30;;;4.90;96.33;94472.31;4973568;28;20026;-57
2024/02/25 08:42:21;;;;;;;2.55;1.40;;;11.50;59.10;;;5.15;95.08;94466.38;4974671;28;20341;-58
2024/02/25 08:44:48;;;;;;;2.88;1.75;;;11.70;58.70;;;5.30;92.43;94475.16;4972610;28;20049;-58
2024/02/25 08:47:14;;;;;;;2.55;1.90;;;11.90;58.40;;;5.34;88.87;94465.66;4972808;28;20038;-57
2024/02/25 08:49:40;;;;;;;1.65;1.38;;;12.00;58.10;;;5.42;88.37;94461.72;4969253;28;20552;-58
2024/02/25 08:52:07;;;;;;;1.77;1.52;;;12.10;57.70;;;5.56;87.95;94473.38;4976613;28;20501;-58
2024/02/25 08:54:34;;;;;;;1.95;1.30;;;12.30;57.50;;;5.71;87.65;94463.91;4972848;28;20048;-59
2024/02/25 08:57:00;;;;;;;2.63;1.55;;;12.30;57.20;;;5.79;85.75;94466.03;4973888;28;20029;-58
2024/02/25 08:59:26;;;;;;;2.70;1.40;;;12.50;57.00;;;5.98;84.42;94464.50;4974878;28;20520;-58
2024/02/25 09:01:53;;;;;;;1.60;1.50;;;12.70;56.70;;;6.13;84.73;94466.38;4951955;28;20111;-60
2024/02/25 09:04:19;;;;;;;1.42;1.33;;;12.80;56.40;;;6.16;79.94;94462.41;4972683;28;20092;-60
2024/02/25 09:06:45;;;;;;;1.30;1.20;;;12.90;56.00;;;6.30;80.76;94452.09;4954603;28;20028;-59
2024/02/25 09:09:11;;;;;;;1.95;1.40;;;13.00;55.70;;;6.52;79.86;94457.94;4973339;28;20535;-57
2024/02/25 09:11:37;;;;;;;1.30;1.20;;;13.10;55.50;;;6.77;80.65;94454.47;4975622;28;20034;-60
2024/02/25 09:14:03;;;;;;;1.88;1.10;;;13.40;55.30;;;6.93;77.83;94449.94;4973370;28;20630;-60
2024/02/25 09:16:29;;;;;;;1.80;1.52;;;13.50;55.00;;;7.16;77.04;94449.31;4972692;28;20022;-60
2024/02/25 09:18:54;;;;;;;1.90;1.10;;;13.80;54.80;;;7.23;74.27;94448.22;4972265;28;20125;-60
2024/02/25 09:21:21;;;;;;;1.90;1.40;;;13.80;54.40;;;7.18;72.63;94447.19;4968609;28;20025;-57
2024/02/25 09:23:47;;;;;;;1.60;1.10;;;13.90;54.00;;;7.20;72.48;94446.91;4972630;28;20041;-59
2024/02/25 09:26:14;;;;;;;1.73;1.10;;;13.80;53.70;;;7.32;69.76;94449.25;4969412;28;20588;-60
2024/02/25 09:28:40;;;;;;;4.95;1.27;;;13.90;53.40;;;7.36;69.62;94440.53;4973850;28;20489;-60
2024/02/25 09:31:08;;;;;;;1.20;1.10;;;13.90;53.00;;;7.54;68.99;94433.00;4970342;28;20434;-57
2024/02/25 09:33:35;;;;;;;2.03;1.38;;;13.90;52.80;;;7.83;65.93;94433.91;4972357;28;20084;-55
2024/02/25 09:36:01;;;;;;;1.50;1.20;;;14.20;52.50;;;8.02;63.69;94427.94;4971671;28;20033;-60
2024/02/25 09:38:27;;;;;;;2.38;1.30;;;14.60;52.00;;;8.36;63.08;94422.63;4966863;28;20038;-59
2024/02/25 09:41:04;;;;;;;1.30;1.20;;;15.00;51.50;;;8.71;61.30;94423.41;4970884;28;20037;-59
2024/02/25 09:43:30;;;;;;;1.40;1.30;;;15.40;50.90;;;8.99;60.90;94414.66;4952479;28;20401;-56
2024/02/25 09:45:58;;;;;;;1.65;1.10;;;15.80;50.70;;;9.32;59.93;94403.38;4970117;28;20073;-60
2024/02/25 09:48:25;;;;;;;1.25;1.15;;;16.10;50.10;;;9.71;58.53;94403.09;4967212;28;20381;-60
2024/02/25 09:50:53;;;;;;;3.25;1.30;;;16.50;49.60;;;10.09;56.55;94398.59;4968381;28;20026;-58
2024/02/25 09:53:23;;;;;;;1.98;1.20;;;16.90;48.90;;;10.36;57.49;94407.75;4971034;28;20050;-60
2024/02/25 09:55:49;;;;;;;1.27;1.17;;;17.40;48.50;;;10.58;54.30;94399.16;4966761;28;20605;-60
2024/02/25 09:58:17;;;;;;;1.30;1.20;;;17.80;48.10;;;10.88;55.11;94401.28;4972689;28;20097;-60
2024/02/25 10:00:43;;;;;;;1.25;1.15;;;18.20;47.50;;;11.16;54.90;94398.63;4969181;28;20018;-60
2024/02/25 10:03:13;;;;;;;1.40;1.25;;;18.50;47.10;;;11.40;50.66;94400.28;4969776;28;20038;-60
2024/02/25 10:05:40;;;;;;;2.00;1.20;;;18.90;45.90;;;11.69;50.81;94400.75;4970983;28;20041;-60
2024/02/25 10:08:12;;;;;;;1.75;1.10;;;19.20;45.20;;;11.73;49.39;94393.72;4976040;28;20025;-60
2024/02/25 10:10:41;;;;;;;;;;;19.50;45.10;;;11.98;48.33;94391.59;4974678;28;20065;-54
2024/02/25 10:13:11;;;;;;;1.30;1.20;;;19.80;45.40;;;12.05;49.36;94381.28;4968914;28;19910;-58
2024/02/25 10:15:39;;;;;;;1.35;1.20;;;20.10;44.10;;;12.42;46.54;94388.16;4968945;28;20026;-58
2024/02/25 10:18:05;;;;;;;1.20;1.10;;;20.40;43.20;;;12.39;46.88;94377.28;4971725;28;20392;-58